sensor_id;sensor_type;location;lat;lon;timestamp;P1;durP1;ratioP1;P2;durP2;ratioP2
4738;SDS011;2383;48.632;10.156;2023-03-03T00:03:49;49.73;;;26.27;;
4738;SDS011;2383;48.632;10.156;2023-03-03T00:07:52;50.73;;;25.50;;
4738;SDS011;2383;48.632;10.156;2023-03-03T00:11:54;44.53;;;26.10;;
4738;SDS011;2383;48.632;10.156;2023-03-03T00:16:09;45.93;;;25.73;;
4738;SDS011;2383;48.632;10.156;2023-03-03T00:20:36;48.40;;;26.67;;
4738;SDS011;2383;48.632;10.156;2023-03-03T00:24:39;48.80;;;26.93;;
4738;SDS011;2383;48.632;10.156;2023-03-03T00:28:45;48.30;;;28.83;;
4738;SDS011;2383;48.632;10.156;2023-03-03T00:32:49;51.97;;;27.00;;
4738;SDS011;2383;48.632;10.156;2023-03-03T00:36:54;60.40;;;34.47;;
4738;SDS011;2383;48.632;10.156;2023-03-03T00:40:57;47.47;;;27.90;;
4738;SDS011;2383;48.632;10.156;2023-03-03T00:44:59;45.40;;;27.37;;
4738;SDS011;2383;48.632;10.156;2023-03-03T00:49:01;47.17;;;26.50;;
4738;SDS011;2383;48.632;10.156;2023-03-03T00:53:17;49.17;;;26.30;;
4738;SDS011;2383;48.632;10.156;2023-03-03T00:57:20;42.17;;;24.57;;
4738;SDS011;2383;48.632;10.156;2023-03-03T01:01:23;44.60;;;24.80;;
4738;SDS011;2383;48.632;10.156;2023-03-03T01:05:27;43.13;;;25.70;;
4738;SDS011;2383;48.632;10.156;2023-03-03T01:09:29;45.17;;;25.27;;
4738;SDS011;2383;48.632;10.156;2023-03-03T01:13:32;50.03;;;27.07;;
4738;SDS011;2383;48.632;10.156;2023-03-03T01:17:38;48.60;;;26.73;;
4738;SDS011;2383;48.632;10.156;2023-03-03T01:21:40;45.37;;;26.43;;
4738;SDS011;2383;48.632;10.156;2023-03-03T01:25:42;42.07;;;25.30;;
4738;SDS011;2383;48.632;10.156;2023-03-03T01:29:44;49.80;;;26.13;;
4738;SDS011;2383;48.632;10.156;2023-03-03T01:33:46;46.13;;;26.33;;
4738;SDS011;2383;48.632;10.156;2023-03-03T01:37:47;45.13;;;25.73;;
4738;SDS011;2383;48.632;10.156;2023-03-03T01:41:49;45.80;;;27.13;;
4738;SDS011;2383;48.632;10.156;2023-03-03T01:49:57;46.60;;;26.97;;
4738;SDS011;2383;48.632;10.156;2023-03-03T01:54:05;41.70;;;24.67;;
4738;SDS011;2383;48.632;10.156;2023-03-03T02:03:04;48.13;;;26.60;;
4738;SDS011;2383;48.632;10.156;2023-03-03T02:07:10;45.80;;;27.07;;
4738;SDS011;2383;48.632;10.156;2023-03-03T02:11:14;45.07;;;26.20;;
4738;SDS011;2383;48.632;10.156;2023-03-03T02:15:22;49.90;;;28.63;;
4738;SDS011;2383;48.632;10.156;2023-03-03T02:27:55;47.23;;;26.43;;
4738;SDS011;2383;48.632;10.156;2023-03-03T02:31:57;47.77;;;26.67;;
4738;SDS011;2383;48.632;10.156;2023-03-03T02:36:00;44.07;;;26.73;;
4738;SDS011;2383;48.632;10.156;2023-03-03T02:40:01;45.67;;;25.70;;
4738;SDS011;2383;48.632;10.156;2023-03-03T02:48:11;50.10;;;28.27;;
4738;SDS011;2383;48.632;10.156;2023-03-03T02:52:13;49.03;;;27.50;;
4738;SDS011;2383;48.632;10.156;2023-03-03T02:56:20;45.63;;;26.53;;
4738;SDS011;2383;48.632;10.156;2023-03-03T03:00:22;44.57;;;26.50;;
4738;SDS011;2383;48.632;10.156;2023-03-03T03:04:25;45.60;;;26.90;;
4738;SDS011;2383;48.632;10.156;2023-03-03T03:08:28;53.67;;;27.33;;
4738;SDS011;2383;48.632;10.156;2023-03-03T03:12:30;43.37;;;25.90;;
4738;SDS011;2383;48.632;10.156;2023-03-03T03:16:34;49.33;;;27.13;;
4738;SDS011;2383;48.632;10.156;2023-03-03T03:20:38;44.30;;;25.93;;
4738;SDS011;2383;48.632;10.156;2023-03-03T03:24:43;42.73;;;25.83;;
4738;SDS011;2383;48.632;10.156;2023-03-03T03:28:46;47.27;;;25.73;;
4738;SDS011;2383;48.632;10.156;2023-03-03T03:32:49;46.73;;;25.73;;
4738;SDS011;2383;48.632;10.156;2023-03-03T03:36:52;47.93;;;28.33;;
4738;SDS011;2383;48.632;10.156;2023-03-03T03:40:56;47.10;;;27.13;;
4738;SDS011;2383;48.632;10.156;2023-03-03T03:44:58;46.93;;;26.07;;
4738;SDS011;2383;48.632;10.156;2023-03-03T03:49:00;51.83;;;27.70;;
4738;SDS011;2383;48.632;10.156;2023-03-03T03:53:04;49.73;;;28.20;;
4738;SDS011;2383;48.632;10.156;2023-03-03T03:57:06;49.13;;;26.83;;
4738;SDS011;2383;48.632;10.156;2023-03-03T04:01:09;52.10;;;28.03;;
4738;SDS011;2383;48.632;10.156;2023-03-03T04:05:17;53.43;;;27.97;;
4738;SDS011;2383;48.632;10.156;2023-03-03T04:09:21;51.50;;;29.97;;
4738;SDS011;2383;48.632;10.156;2023-03-03T04:13:23;53.70;;;30.23;;
4738;SDS011;2383;48.632;10.156;2023-03-03T04:17:29;53.93;;;31.20;;
4738;SDS011;2383;48.632;10.156;2023-03-03T04:21:31;52.50;;;29.47;;
4738;SDS011;2383;48.632;10.156;2023-03-03T04:25:34;51.30;;;28.33;;
4738;SDS011;2383;48.632;10.156;2023-03-03T04:29:45;45.67;;;27.13;;
4738;SDS011;2383;48.632;10.156;2023-03-03T04:33:47;51.17;;;27.00;;
4738;SDS011;2383;48.632;10.156;2023-03-03T04:37:50;44.77;;;27.20;;
4738;SDS011;2383;48.632;10.156;2023-03-03T04:41:51;54.37;;;29.37;;
4738;SDS011;2383;48.632;10.156;2023-03-03T04:45:54;53.67;;;30.40;;
4738;SDS011;2383;48.632;10.156;2023-03-03T04:49:56;52.33;;;29.17;;
4738;SDS011;2383;48.632;10.156;2023-03-03T04:53:59;54.47;;;30.10;;
4738;SDS011;2383;48.632;10.156;2023-03-03T04:58:01;54.83;;;29.37;;
4738;SDS011;2383;48.632;10.156;2023-03-03T05:02:04;53.57;;;30.83;;
4738;SDS011;2383;48.632;10.156;2023-03-03T05:06:06;48.93;;;28.67;;
4738;SDS011;2383;48.632;10.156;2023-03-03T05:10:08;52.23;;;29.10;;
4738;SDS011;2383;48.632;10.156;2023-03-03T05:14:11;55.37;;;30.80;;
4738;SDS011;2383;48.632;10.156;2023-03-03T05:18:13;49.07;;;28.87;;
4738;SDS011;2383;48.632;10.156;2023-03-03T05:22:15;54.03;;;31.43;;
4738;SDS011;2383;48.632;10.156;2023-03-03T05:26:16;61.90;;;33.17;;
4738;SDS011;2383;48.632;10.156;2023-03-03T05:30:18;63.53;;;34.23;;
4738;SDS011;2383;48.632;10.156;2023-03-03T05:34:20;59.43;;;32.27;;
4738;SDS011;2383;48.632;10.156;2023-03-03T05:38:23;59.10;;;31.83;;
4738;SDS011;2383;48.632;10.156;2023-03-03T05:42:25;52.73;;;30.50;;
4738;SDS011;2383;48.632;10.156;2023-03-03T05:46:27;51.57;;;29.40;;
4738;SDS011;2383;48.632;10.156;2023-03-03T05:50:29;48.97;;;29.03;;
4738;SDS011;2383;48.632;10.156;2023-03-03T05:54:31;52.30;;;29.47;;
4738;SDS011;2383;48.632;10.156;2023-03-03T05:58:33;51.30;;;29.00;;
4738;SDS011;2383;48.632;10.156;2023-03-03T06:02:35;53.17;;;30.17;;
4738;SDS011;2383;48.632;10.156;2023-03-03T06:06:37;55.27;;;30.33;;
4738;SDS011;2383;48.632;10.156;2023-03-03T06:10:39;58.43;;;31.40;;
4738;SDS011;2383;48.632;10.156;2023-03-03T06:14:43;56.73;;;31.80;;
4738;SDS011;2383;48.632;10.156;2023-03-03T06:18:45;51.83;;;31.07;;
4738;SDS011;2383;48.632;10.156;2023-03-03T06:22:47;60.60;;;32.57;;
4738;SDS011;2383;48.632;10.156;2023-03-03T06:26:49;54.50;;;31.27;;
4738;SDS011;2383;48.632;10.156;2023-03-03T06:30:52;54.43;;;31.37;;
4738;SDS011;2383;48.632;10.156;2023-03-03T06:34:55;58.33;;;33.07;;
4738;SDS011;2383;48.632;10.156;2023-03-03T06:38:57;56.23;;;31.10;;
4738;SDS011;2383;48.632;10.156;2023-03-03T06:42:59;56.67;;;32.57;;
4738;SDS011;2383;48.632;10.156;2023-03-03T06:47:03;54.80;;;31.30;;
4738;SDS011;2383;48.632;10.156;2023-03-03T06:51:28;53.47;;;30.70;;
4738;SDS011;2383;48.632;10.156;2023-03-03T06:55:33;57.53;;;32.77;;
4738;SDS011;2383;48.632;10.156;2023-03-03T06:59:35;58.40;;;32.93;;
4738;SDS011;2383;48.632;10.156;2023-03-03T07:03:37;93.07;;;43.03;;
4738;SDS011;2383;48.632;10.156;2023-03-03T07:07:39;73.83;;;39.27;;
4738;SDS011;2383;48.632;10.156;2023-03-03T07:11:41;68.20;;;37.50;;
4738;SDS011;2383;48.632;10.156;2023-03-03T07:15:47;96.30;;;50.00;;
4738;SDS011;2383;48.632;10.156;2023-03-03T07:19:50;66.33;;;37.53;;
4738;SDS011;2383;48.632;10.156;2023-03-03T07:23:52;71.17;;;36.07;;
4738;SDS011;2383;48.632;10.156;2023-03-03T07:27:57;67.20;;;37.23;;
4738;SDS011;2383;48.632;10.156;2023-03-03T07:32:01;62.90;;;34.20;;
4738;SDS011;2383;48.632;10.156;2023-03-03T07:36:05;64.70;;;35.33;;
4738;SDS011;2383;48.632;10.156;2023-03-03T07:44:35;63.03;;;35.77;;
4738;SDS011;2383;48.632;10.156;2023-03-03T07:48:38;62.27;;;35.40;;
4738;SDS011;2383;48.632;10.156;2023-03-03T07:52:43;69.00;;;35.67;;
4738;SDS011;2383;48.632;10.156;2023-03-03T07:57:11;66.37;;;36.73;;
4738;SDS011;2383;48.632;10.156;2023-03-03T08:05:41;66.73;;;35.47;;
4738;SDS011;2383;48.632;10.156;2023-03-03T08:09:51;66.83;;;37.37;;
4738;SDS011;2383;48.632;10.156;2023-03-03T08:13:57;62.80;;;37.00;;
4738;SDS011;2383;48.632;10.156;2023-03-03T08:17:59;66.30;;;36.20;;
4738;SDS011;2383;48.632;10.156;2023-03-03T08:22:08;69.30;;;37.20;;
4738;SDS011;2383;48.632;10.156;2023-03-03T08:26:15;71.10;;;37.10;;
4738;SDS011;2383;48.632;10.156;2023-03-03T08:30:17;67.60;;;35.20;;
4738;SDS011;2383;48.632;10.156;2023-03-03T08:34:19;59.37;;;34.20;;
4738;SDS011;2383;48.632;10.156;2023-03-03T08:38:21;78.17;;;39.30;;
4738;SDS011;2383;48.632;10.156;2023-03-03T08:42:23;68.90;;;35.93;;
4738;SDS011;2383;48.632;10.156;2023-03-03T08:46:25;64.33;;;36.43;;
4738;SDS011;2383;48.632;10.156;2023-03-03T08:50:29;68.27;;;39.17;;
4738;SDS011;2383;48.632;10.156;2023-03-03T08:54:31;67.67;;;38.23;;
4738;SDS011;2383;48.632;10.156;2023-03-03T08:58:33;64.27;;;34.77;;
4738;SDS011;2383;48.632;10.156;2023-03-03T09:02:36;69.40;;;37.80;;
4738;SDS011;2383;48.632;10.156;2023-03-03T09:06:39;65.67;;;35.60;;
4738;SDS011;2383;48.632;10.156;2023-03-03T09:10:41;63.60;;;35.67;;
4738;SDS011;2383;48.632;10.156;2023-03-03T09:14:43;67.90;;;34.83;;
4738;SDS011;2383;48.632;10.156;2023-03-03T09:18:45;59.00;;;33.27;;
4738;SDS011;2383;48.632;10.156;2023-03-03T09:22:47;64.90;;;34.27;;
4738;SDS011;2383;48.632;10.156;2023-03-03T09:26:50;65.10;;;32.87;;
4738;SDS011;2383;48.632;10.156;2023-03-03T09:30:54;58.07;;;33.33;;
4738;SDS011;2383;48.632;10.156;2023-03-03T09:34:59;59.13;;;32.93;;
4738;SDS011;2383;48.632;10.156;2023-03-03T09:39:23;60.37;;;31.40;;
4738;SDS011;2383;48.632;10.156;2023-03-03T09:47:52;58.70;;;31.60;;
4738;SDS011;2383;48.632;10.156;2023-03-03T09:52:13;71.20;;;32.90;;
4738;SDS011;2383;48.632;10.156;2023-03-03T09:56:46;60.33;;;31.70;;
4738;SDS011;2383;48.632;10.156;2023-03-03T10:06:00;56.50;;;30.40;;
4738;SDS011;2383;48.632;10.156;2023-03-03T10:14:50;66.00;;;31.93;;
4738;SDS011;2383;48.632;10.156;2023-03-03T10:28:10;54.00;;;30.93;;
4738;SDS011;2383;48.632;10.156;2023-03-03T10:33:16;52.53;;;29.27;;
4738;SDS011;2383;48.632;10.156;2023-03-03T10:50:18;53.70;;;29.50;;
4738;SDS011;2383;48.632;10.156;2023-03-03T11:07:29;46.27;;;28.50;;
4738;SDS011;2383;48.632;10.156;2023-03-03T11:11:59;49.27;;;26.37;;
4738;SDS011;2383;48.632;10.156;2023-03-03T11:20:51;50.23;;;27.30;;
4738;SDS011;2383;48.632;10.156;2023-03-03T11:25:12;47.50;;;27.63;;
4738;SDS011;2383;48.632;10.156;2023-03-03T11:29:29;48.47;;;28.10;;
4738;SDS011;2383;48.632;10.156;2023-03-03T11:37:58;46.27;;;27.43;;
4738;SDS011;2383;48.632;10.156;2023-03-03T11:42:23;43.10;;;26.10;;
4738;SDS011;2383;48.632;10.156;2023-03-03T11:50:54;49.23;;;26.97;;
4738;SDS011;2383;48.632;10.156;2023-03-03T12:03:40;43.10;;;26.00;;
4738;SDS011;2383;48.632;10.156;2023-03-03T12:07:53;49.93;;;25.77;;
4738;SDS011;2383;48.632;10.156;2023-03-03T12:37:58;47.13;;;25.57;;
4738;SDS011;2383;48.632;10.156;2023-03-03T12:55:24;41.17;;;24.37;;
4738;SDS011;2383;48.632;10.156;2023-03-03T13:33:57;40.93;;;23.53;;
4738;SDS011;2383;48.632;10.156;2023-03-03T13:38:00;42.23;;;24.53;;
4738;SDS011;2383;48.632;10.156;2023-03-03T13:42:05;39.37;;;24.23;;
4738;SDS011;2383;48.632;10.156;2023-03-03T13:46:39;40.83;;;22.23;;
4738;SDS011;2383;48.632;10.156;2023-03-03T13:50:59;40.83;;;23.70;;
4738;SDS011;2383;48.632;10.156;2023-03-03T13:59:34;39.70;;;22.70;;
4738;SDS011;2383;48.632;10.156;2023-03-03T14:12:34;38.37;;;22.43;;
4738;SDS011;2383;48.632;10.156;2023-03-03T14:16:53;34.90;;;22.37;;
4738;SDS011;2383;48.632;10.156;2023-03-03T14:21:01;32.67;;;20.63;;
4738;SDS011;2383;48.632;10.156;2023-03-03T14:25:10;37.93;;;20.93;;
4738;SDS011;2383;48.632;10.156;2023-03-03T14:33:29;34.47;;;21.50;;
4738;SDS011;2383;48.632;10.156;2023-03-03T14:37:41;35.47;;;21.40;;
4738;SDS011;2383;48.632;10.156;2023-03-03T14:41:45;34.37;;;20.80;;
4738;SDS011;2383;48.632;10.156;2023-03-03T14:45:47;31.80;;;20.80;;
4738;SDS011;2383;48.632;10.156;2023-03-03T14:49:49;40.60;;;23.23;;
4738;SDS011;2383;48.632;10.156;2023-03-03T14:53:52;36.80;;;22.43;;
4738;SDS011;2383;48.632;10.156;2023-03-03T14:57:55;32.67;;;21.47;;
4738;SDS011;2383;48.632;10.156;2023-03-03T15:11:10;38.25;;;22.40;;
4738;SDS011;2383;48.632;10.156;2023-03-03T15:15:21;35.50;;;21.17;;
4738;SDS011;2383;48.632;10.156;2023-03-03T15:19:31;32.97;;;21.53;;
4738;SDS011;2383;48.632;10.156;2023-03-03T15:24:01;36.77;;;20.57;;
4738;SDS011;2383;48.632;10.156;2023-03-03T15:41:48;31.10;;;20.43;;
4738;SDS011;2383;48.632;10.156;2023-03-03T15:46:05;31.53;;;21.73;;
4738;SDS011;2383;48.632;10.156;2023-03-03T16:04:04;35.80;;;22.83;;
4738;SDS011;2383;48.632;10.156;2023-03-03T16:08:13;44.37;;;23.77;;
4738;SDS011;2383;48.632;10.156;2023-03-03T16:34:18;42.83;;;23.00;;
4738;SDS011;2383;48.632;10.156;2023-03-03T16:42:32;35.40;;;21.10;;
4738;SDS011;2383;48.632;10.156;2023-03-03T16:46:41;37.63;;;22.73;;
4738;SDS011;2383;48.632;10.156;2023-03-03T16:50:53;34.80;;;20.77;;
4738;SDS011;2383;48.632;10.156;2023-03-03T16:55:01;35.50;;;21.73;;
4738;SDS011;2383;48.632;10.156;2023-03-03T17:03:20;33.83;;;21.60;;
4738;SDS011;2383;48.632;10.156;2023-03-03T17:12:05;41.43;;;21.63;;
4738;SDS011;2383;48.632;10.156;2023-03-03T17:16:19;41.80;;;23.40;;
4738;SDS011;2383;48.632;10.156;2023-03-03T17:47:08;42.07;;;21.63;;
4738;SDS011;2383;48.632;10.156;2023-03-03T18:08:22;36.93;;;22.90;;
4738;SDS011;2383;48.632;10.156;2023-03-03T18:17:23;43.47;;;20.77;;
4738;SDS011;2383;48.632;10.156;2023-03-03T18:25:51;40.07;;;20.13;;
4738;SDS011;2383;48.632;10.156;2023-03-03T18:38:24;67.27;;;32.80;;
4738;SDS011;2383;48.632;10.156;2023-03-03T18:46:46;69.03;;;34.13;;
4738;SDS011;2383;48.632;10.156;2023-03-03T18:50:49;71.00;;;33.03;;
4738;SDS011;2383;48.632;10.156;2023-03-03T18:59:09;37.27;;;21.13;;
4738;SDS011;2383;48.632;10.156;2023-03-03T19:11:59;48.53;;;28.93;;
4738;SDS011;2383;48.632;10.156;2023-03-03T19:16:05;55.43;;;29.90;;
4738;SDS011;2383;48.632;10.156;2023-03-03T19:20:10;51.83;;;30.23;;
4738;SDS011;2383;48.632;10.156;2023-03-03T20:12:29;51.53;;;27.73;;
4738;SDS011;2383;48.632;10.156;2023-03-03T20:16:40;50.17;;;28.37;;
4738;SDS011;2383;48.632;10.156;2023-03-03T20:20:55;56.60;;;29.43;;
4738;SDS011;2383;48.632;10.156;2023-03-03T20:25:19;62.30;;;32.97;;
4738;SDS011;2383;48.632;10.156;2023-03-03T20:34:15;49.17;;;28.23;;
4738;SDS011;2383;48.632;10.156;2023-03-03T20:42:59;53.67;;;29.30;;
4738;SDS011;2383;48.632;10.156;2023-03-03T21:04:28;46.67;;;26.67;;
4738;SDS011;2383;48.632;10.156;2023-03-03T21:08:42;48.10;;;28.37;;
4738;SDS011;2383;48.632;10.156;2023-03-03T21:12:50;54.17;;;29.33;;
4738;SDS011;2383;48.632;10.156;2023-03-03T21:16:58;51.73;;;27.53;;
4738;SDS011;2383;48.632;10.156;2023-03-03T21:21:02;43.33;;;25.50;;
4738;SDS011;2383;48.632;10.156;2023-03-03T21:25:05;49.90;;;28.50;;
4738;SDS011;2383;48.632;10.156;2023-03-03T21:29:07;49.67;;;27.40;;
4738;SDS011;2383;48.632;10.156;2023-03-03T21:33:09;52.10;;;28.13;;
4738;SDS011;2383;48.632;10.156;2023-03-03T21:37:42;50.83;;;27.07;;
4738;SDS011;2383;48.632;10.156;2023-03-03T21:41:51;50.30;;;27.17;;
4738;SDS011;2383;48.632;10.156;2023-03-03T21:45:53;49.73;;;26.70;;
4738;SDS011;2383;48.632;10.156;2023-03-03T21:49:55;51.17;;;27.60;;
4738;SDS011;2383;48.632;10.156;2023-03-03T21:53:57;49.93;;;27.93;;
4738;SDS011;2383;48.632;10.156;2023-03-03T21:57:59;52.97;;;28.00;;
4738;SDS011;2383;48.632;10.156;2023-03-03T22:02:01;50.13;;;26.63;;
4738;SDS011;2383;48.632;10.156;2023-03-03T22:06:04;48.30;;;25.70;;
4738;SDS011;2383;48.632;10.156;2023-03-03T22:10:06;47.93;;;25.97;;
4738;SDS011;2383;48.632;10.156;2023-03-03T22:14:10;47.40;;;26.10;;
4738;SDS011;2383;48.632;10.156;2023-03-03T22:18:12;59.43;;;28.10;;
4738;SDS011;2383;48.632;10.156;2023-03-03T22:22:15;54.07;;;28.13;;
4738;SDS011;2383;48.632;10.156;2023-03-03T22:26:17;51.87;;;28.63;;
4738;SDS011;2383;48.632;10.156;2023-03-03T22:30:18;54.30;;;27.80;;
4738;SDS011;2383;48.632;10.156;2023-03-03T22:34:20;51.97;;;27.47;;
4738;SDS011;2383;48.632;10.156;2023-03-03T22:38:22;51.97;;;27.07;;
4738;SDS011;2383;48.632;10.156;2023-03-03T22:42:25;51.83;;;26.87;;
4738;SDS011;2383;48.632;10.156;2023-03-03T22:46:27;48.60;;;26.87;;
4738;SDS011;2383;48.632;10.156;2023-03-03T22:50:29;50.30;;;26.73;;
4738;SDS011;2383;48.632;10.156;2023-03-03T22:54:31;48.00;;;26.67;;
4738;SDS011;2383;48.632;10.156;2023-03-03T22:58:32;50.33;;;27.20;;
4738;SDS011;2383;48.632;10.156;2023-03-03T23:02:34;48.20;;;25.37;;
4738;SDS011;2383;48.632;10.156;2023-03-03T23:06:36;48.47;;;25.83;;
4738;SDS011;2383;48.632;10.156;2023-03-03T23:10:38;48.47;;;26.90;;
4738;SDS011;2383;48.632;10.156;2023-03-03T23:14:40;57.47;;;26.27;;
4738;SDS011;2383;48.632;10.156;2023-03-03T23:18:42;45.03;;;25.13;;
4738;SDS011;2383;48.632;10.156;2023-03-03T23:22:44;45.87;;;25.23;;
4738;SDS011;2383;48.632;10.156;2023-03-03T23:26:46;49.83;;;27.00;;
4738;SDS011;2383;48.632;10.156;2023-03-03T23:30:52;48.13;;;23.83;;
4738;SDS011;2383;48.632;10.156;2023-03-03T23:34:53;50.53;;;25.43;;
4738;SDS011;2383;48.632;10.156;2023-03-03T23:38:55;48.23;;;26.90;;
4738;SDS011;2383;48.632;10.156;2023-03-03T23:42:57;43.97;;;24.67;;
4738;SDS011;2383;48.632;10.156;2023-03-03T23:46:59;44.07;;;24.17;;
4738;SDS011;2383;48.632;10.156;2023-03-03T23:51:01;48.33;;;25.20;;
4738;SDS011;2383;48.632;10.156;2023-03-03T23:55:04;50.07;;;25.07;;
4738;SDS011;2383;48.632;10.156;2023-03-03T23:59:06;39.33;;;23.20;;
